Time;durP1;ratioP1;P1;durP2;ratioP2;P2;SDS_P1;SDS_P2;PMS_P1;PMS_P2;Temp;Humidity;BMP_temperature;BMP_pressure;BME280_temperature;BME280_humidity;BME280_pressure;Samples;Min_cycle;Max_cycle;Signal;HPM_P1;HPM_P2
2023/05/24 00:00:37;;;;;;;7.68;5.68;;;;;;;;;;5077558;28;20056;-62
2023/05/24 00:03:03;;;;;;;7.38;6.07;;;;;;;;;;5077088;28;20055;-63
2023/05/24 00:05:29;;;;;;;6.78;6.07;;;;;;;;;;5059573;28;20056;-62
2023/05/24 00:07:55;;;;;;;6.07;5.47;;;;;;;;;;5054855;28;20044;-62
2023/05/24 00:10:23;;;;;;;10.82;6.18;;;;;;;;;;5056159;28;20036;-62
2023/05/24 00:12:48;;;;;;;7.28;5.75;;;;;;;;;;5055044;28;20036;-62
2023/05/24 00:15:14;;;;;;;7.45;6.40;;;;;;;;;;5056699;28;20044;-62
2023/05/24 00:17:41;;;;;;;6.40;5.60;;;;;;;;;;5055449;28;20118;-63
2023/05/24 00:20:09;;;;;;;8.18;5.78;;;;;;;;;;5056567;28;20029;-62
2023/05/24 00:22:39;;;;;;;7.45;6.35;;;;;;;;;;5039355;28;20037;-63
2023/05/24 00:25:05;;;;;;;6.22;5.65;;;;;;;;;;5056237;28;20041;-62
2023/05/24 00:27:30;;;;;;;6.35;5.15;;;;;;;;;;5057240;28;20038;-62
2023/05/24 00:29:58;;;;;;;5.55;5.05;;;;;;;;;;5055080;28;20304;-61
2023/05/24 00:32:23;;;;;;;4.65;4.25;;;;;;;;;;5055190;28;20074;-62
2023/05/24 00:34:49;;;;;;;4.95;4.53;;;;;;;;;;5054995;28;20143;-62
2023/05/24 00:37:15;;;;;;;6.00;5.40;;;;;;;;;;5055994;28;20574;-62
2023/05/24 00:39:41;;;;;;;6.15;5.63;;;;;;;;;;5055764;28;20044;-62
2023/05/24 00:42:06;;;;;;;5.72;4.85;;;;;;;;;;5032718;28;20353;-62
2023/05/24 00:44:32;;;;;;;5.25;4.85;;;;;;;;;;5039552;28;20051;-63
2023/05/24 00:46:58;;;;;;;5.63;5.13;;;;;;;;;;5057280;28;20413;-61
2023/05/24 00:49:24;;;;;;;5.72;4.93;;;;;;;;;;5055896;28;20484;-60
2023/05/24 00:51:51;;;;;;;5.30;4.80;;;;;;;;;;5041270;28;20410;-62
2023/05/24 00:54:17;;;;;;;5.85;5.35;;;;;;;;;;5054340;28;20024;-61
2023/05/24 00:56:43;;;;;;;5.35;4.70;;;;;;;;;;5056215;28;20044;-61
2023/05/24 00:59:08;;;;;;;5.57;5.00;;;;;;;;;;5054366;28;20032;-62
2023/05/24 01:01:36;;;;;;;6.20;5.07;;;;;;;;;;5052480;28;20570;-61
2023/05/24 01:04:01;;;;;;;5.32;4.68;;;;;;;;;;5054782;28;20121;-61
2023/05/24 01:06:27;;;;;;;5.80;5.20;;;;;;;;;;5057272;28;20480;-61
2023/05/24 01:09:16;;;;;;;5.93;5.40;;;;;;;;;;5055432;28;20483;-61
2023/05/24 01:12:06;;;;;;;5.50;5.07;;;;;;;;;;5044260;28;20124;-62
2023/05/24 01:14:52;;;;;;;5.85;5.35;;;;;;;;;;5055049;28;20094;-62
2023/05/24 01:17:20;;;;;;;8.30;6.20;;;;;;;;;;5054637;28;20041;-62
2023/05/24 01:20:05;;;;;;;6.20;5.60;;;;;;;;;;5054861;28;20527;-62
2023/05/24 01:22:33;;;;;;;6.38;5.65;;;;;;;;;;5055678;28;20056;-62
2023/05/24 01:25:05;;;;;;;6.45;5.85;;;;;;;;;;5054725;28;20531;-63
2023/05/24 01:27:37;;;;;;;7.43;6.03;;;;;;;;;;5056492;28;20480;-63
2023/05/24 01:30:03;;;;;;;7.32;5.88;;;;;;;;;;5056976;28;20039;-63
2023/05/24 01:32:30;;;;;;;6.10;5.50;;;;;;;;;;5055714;28;20559;-61
2023/05/24 01:34:55;;;;;;;6.75;5.82;;;;;;;;;;5053719;28;20505;-62
2023/05/24 01:37:21;;;;;;;7.40;6.68;;;;;;;;;;5055999;28;20052;-61
2023/05/24 01:39:47;;;;;;;7.65;5.95;;;;;;;;;;5056835;28;20182;-62
2023/05/24 01:42:16;;;;;;;7.25;5.40;;;;;;;;;;5057307;28;20035;-61
2023/05/24 01:45:03;;;;;;;7.30;6.60;;;;;;;;;;5055327;28;20045;-62
2023/05/24 01:47:31;;;;;;;6.95;6.15;;;;;;;;;;5035040;28;20058;-62
2023/05/24 01:50:04;;;;;;;7.38;6.53;;;;;;;;;;5039689;28;20028;-62
2023/05/24 01:52:33;;;;;;;7.10;6.40;;;;;;;;;;5057164;28;20035;-62
2023/05/24 01:55:01;;;;;;;7.63;6.43;;;;;;;;;;5054289;28;20463;-62
2023/05/24 01:57:27;;;;;;;8.07;7.28;;;;;;;;;;5037943;28;20039;-62
2023/05/24 01:59:54;;;;;;;7.43;5.93;;;;;;;;;;5035482;28;20071;-62
2023/05/24 02:02:20;;;;;;;8.90;6.82;;;;;;;;;;5055339;28;20056;-62
2023/05/24 02:04:45;;;;;;;8.35;7.20;;;;;;;;;;5053609;28;20630;-62
2023/05/24 02:07:11;;;;;;;7.82;7.03;;;;;;;;;;5035600;28;20043;-63
2023/05/24 02:09:36;;;;;;;8.13;6.57;;;;;;;;;;5055245;28;20165;-62
2023/05/24 02:12:02;;;;;;;10.32;7.45;;;;;;;;;;5055562;28;20036;-62
2023/05/24 02:14:27;;;;;;;7.88;7.07;;;;;;;;;;5041175;28;20396;-62
2023/05/24 02:16:57;;;;;;;11.63;7.95;;;;;;;;;;5043986;28;20148;-61
2023/05/24 02:19:23;;;;;;;7.03;6.32;;;;;;;;;;5059113;28;20037;-62
2023/05/24 02:21:50;;;;;;;8.57;6.88;;;;;;;;;;5058985;28;20050;-62
2023/05/24 02:24:17;;;;;;;10.57;6.70;;;;;;;;;;5057918;28;20040;-62
2023/05/24 02:26:42;;;;;;;11.73;7.38;;;;;;;;;;5058547;28;20032;-62
2023/05/24 02:29:11;;;;;;;8.73;6.78;;;;;;;;;;5058721;28;20033;-62
2023/05/24 02:31:36;;;;;;;7.70;6.60;;;;;;;;;;5058219;28;20417;-62
2023/05/24 02:34:02;;;;;;;7.72;6.53;;;;;;;;;;5058878;28;20064;-62
2023/05/24 02:36:27;;;;;;;7.47;6.75;;;;;;;;;;5057269;28;20044;-62
2023/05/24 02:38:55;;;;;;;8.27;6.13;;;;;;;;;;5056226;28;20040;-62
2023/05/24 02:41:21;;;;;;;7.88;6.40;;;;;;;;;;5039448;28;20037;-62
2023/05/24 02:43:47;;;;;;;8.63;6.60;;;;;;;;;;5057500;28;20040;-62
2023/05/24 02:46:13;;;;;;;7.03;5.20;;;;;;;;;;5058243;28;20147;-62
2023/05/24 02:48:38;;;;;;;6.20;5.38;;;;;;;;;;5043067;28;20388;-62
2023/05/24 02:51:04;;;;;;;5.95;5.32;;;;;;;;;;5057522;28;20506;-62
2023/05/24 02:53:30;;;;;;;5.82;5.25;;;;;;;;;;5027096;28;20120;-62
2023/05/24 02:55:56;;;;;;;5.68;4.75;;;;;;;;;;5057821;28;20060;-62
2023/05/24 02:58:21;;;;;;;5.35;4.85;;;;;;;;;;5057806;28;20032;-62
2023/05/24 03:00:48;;;;;;;5.85;5.35;;;;;;;;;;5044071;28;20459;-61
2023/05/24 03:03:14;;;;;;;6.38;5.50;;;;;;;;;;5038610;28;20028;-62
2023/05/24 03:05:39;;;;;;;5.40;4.90;;;;;;;;;;5067389;28;20044;-62
2023/05/24 03:08:05;;;;;;;7.13;6.40;;;;;;;;;;5078546;28;20036;-61
2023/05/24 03:10:30;;;;;;;5.85;5.30;;;;;;;;;;5077020;28;20135;-61
2023/05/24 03:12:56;;;;;;;6.38;5.78;;;;;;;;;;5078475;28;20097;-62
2023/05/24 03:15:21;;;;;;;6.57;5.18;;;;;;;;;;5070600;28;20161;-62
2023/05/24 03:17:47;;;;;;;6.78;5.43;;;;;;;;;;5077655;28;20660;-62
2023/05/24 03:20:14;;;;;;;4.90;4.45;;;;;;;;;;5076731;28;20032;-63
2023/05/24 03:22:40;;;;;;;5.68;4.20;;;;;;;;;;5076263;28;20063;-63
2023/05/24 03:25:07;;;;;;;5.82;5.22;;;;;;;;;;5077132;28;20167;-62
2023/05/24 03:27:33;;;;;;;6.85;5.35;;;;;;;;;;5062526;28;20086;-63
2023/05/24 03:29:59;;;;;;;7.03;6.15;;;;;;;;;;5079581;28;20028;-63
2023/05/24 03:32:28;;;;;;;7.57;4.82;;;;;;;;;;5080516;28;20044;-62
2023/05/24 03:34:56;;;;;;;5.45;4.95;;;;;;;;;;5076358;28;20044;-62
2023/05/24 03:37:22;;;;;;;5.40;4.90;;;;;;;;;;5078030;28;20032;-63
2023/05/24 03:39:47;;;;;;;5.10;4.65;;;;;;;;;;5076218;28;20058;-62
2023/05/24 03:42:29;;;;;;;5.05;4.45;;;;;;;;;;5075614;28;20036;-61
2023/05/24 03:44:55;;;;;;;5.47;4.43;;;;;;;;;;5075226;28;20051;-62
2023/05/24 03:47:20;;;;;;;5.22;4.72;;;;;;;;;;5075280;28;20032;-61
2023/05/24 03:49:46;;;;;;;10.25;5.63;;;;;;;;;;5075812;28;20040;-63
2023/05/24 03:52:12;;;;;;;6.82;5.00;;;;;;;;;;5079072;28;20348;-62
2023/05/24 03:54:37;;;;;;;6.03;5.43;;;;;;;;;;5077876;28;20096;-62
2023/05/24 03:57:03;;;;;;;6.10;4.63;;;;;;;;;;5073961;28;20498;-62
2023/05/24 03:59:29;;;;;;;5.13;4.60;;;;;;;;;;5068943;28;20031;-62
2023/05/24 04:01:55;;;;;;;5.00;4.50;;;;;;;;;;5076478;28;20128;-62
2023/05/24 04:04:21;;;;;;;5.30;4.25;;;;;;;;;;5074217;28;20081;-62
2023/05/24 04:06:46;;;;;;;4.55;4.10;;;;;;;;;;5076388;28;20480;-62
2023/05/24 04:09:12;;;;;;;5.15;4.18;;;;;;;;;;5074596;28;20028;-63
2023/05/24 04:11:38;;;;;;;5.25;3.83;;;;;;;;;;5076368;28;20044;-62
2023/05/24 04:14:03;;;;;;;4.30;3.90;;;;;;;;;;5076713;28;20043;-62
2023/05/24 04:16:32;;;;;;;3.53;3.17;;;;;;;;;;5073015;28;20086;-63
2023/05/24 04:18:59;;;;;;;3.40;3.10;;;;;;;;;;5062023;28;20965;-61
2023/05/24 04:21:26;;;;;;;3.30;3.00;;;;;;;;;;5065337;28;20071;-61
2023/05/24 04:23:53;;;;;;;3.97;3.60;;;;;;;;;;5074959;28;20037;-62
2023/05/24 04:26:20;;;;;;;3.65;3.38;;;;;;;;;;5078293;28;20032;-62
2023/05/24 04:28:45;;;;;;;4.20;3.35;;;;;;;;;;5075995;28;20134;-62
2023/05/24 04:31:12;;;;;;;3.95;3.65;;;;;;;;;;5095837;28;20032;-62
2023/05/24 04:33:39;;;;;;;3.10;2.90;;;;;;;;;;5073391;28;20204;-61
2023/05/24 04:36:04;;;;;;;4.13;3.70;;;;;;;;;;5073589;28;20129;-61
2023/05/24 04:38:31;;;;;;;3.55;3.25;;;;;;;;;;5075038;28;20039;-61
2023/05/24 04:40:59;;;;;;;3.70;3.40;;;;;;;;;;5075431;28;20033;-61
2023/05/24 04:43:25;;;;;;;4.35;3.20;;;;;;;;;;5077168;28;20036;-60
2023/05/24 04:45:53;;;;;;;3.63;3.33;;;;;;;;;;5075063;28;20044;-61
2023/05/24 04:48:20;;;;;;;3.30;3.00;;;;;;;;;;5077028;28;20046;-63
2023/05/24 04:50:46;;;;;;;3.85;3.55;;;;;;;;;;5074482;28;20032;-61
2023/05/24 04:53:12;;;;;;;5.20;3.83;;;;;;;;;;5076444;28;20046;-62
2023/05/24 04:55:37;;;;;;;3.78;3.47;;;;;;;;;;5074180;28;20044;-61
2023/05/24 04:58:03;;;;;;;3.97;3.65;;;;;;;;;;5075992;28;20430;-61
2023/05/24 05:00:28;;;;;;;3.60;3.30;;;;;;;;;;5074601;28;20485;-61
2023/05/24 05:02:54;;;;;;;3.85;3.65;;;;;;;;;;5074180;28;20040;-62
2023/05/24 05:05:20;;;;;;;5.03;3.53;;;;;;;;;;5077501;28;20101;-62
2023/05/24 05:07:46;;;;;;;2.97;2.78;;;;;;;;;;5074927;28;20452;-62
2023/05/24 05:10:11;;;;;;;3.63;3.33;;;;;;;;;;5074326;28;20079;-61
2023/05/24 05:12:37;;;;;;;3.13;2.92;;;;;;;;;;5073221;28;20531;-61
2023/05/24 05:15:03;;;;;;;3.90;3.55;;;;;;;;;;5075033;28;20047;-61
2023/05/24 05:17:28;;;;;;;3.30;3.08;;;;;;;;;;5075384;28;20164;-61
2023/05/24 05:19:54;;;;;;;4.13;2.80;;;;;;;;;;5075453;28;20405;-61
2023/05/24 05:22:19;;;;;;;3.50;3.20;;;;;;;;;;5076967;28;20042;-61
2023/05/24 05:24:45;;;;;;;3.30;3.10;;;;;;;;;;5073826;28;20072;-62
2023/05/24 05:27:10;;;;;;;5.53;4.18;;;;;;;;;;5076885;28;20036;-61
2023/05/24 05:29:36;;;;;;;3.45;3.15;;;;;;;;;;5076062;28;20653;-60
2023/05/24 05:32:01;;;;;;;3.35;3.05;;;;;;;;;;5078035;28;20077;-60
2023/05/24 05:34:26;;;;;;;3.58;3.30;;;;;;;;;;5075124;28;20028;-61
2023/05/24 05:36:52;;;;;;;3.17;2.92;;;;;;;;;;5075466;28;20406;-62
2023/05/24 05:39:17;;;;;;;2.97;2.78;;;;;;;;;;5074151;28;20047;-56
2023/05/24 05:41:44;;;;;;;3.38;3.17;;;;;;;;;;5071400;28;20424;-61
2023/05/24 05:44:10;;;;;;;3.78;3.58;;;;;;;;;;5076934;28;20028;-62
2023/05/24 05:46:36;;;;;;;4.82;3.17;;;;;;;;;;5077802;28;20044;-61
2023/05/24 05:49:01;;;;;;;3.55;3.35;;;;;;;;;;5078175;28;20046;-61
2023/05/24 05:51:26;;;;;;;3.88;3.50;;;;;;;;;;5079325;28;20943;-61
2023/05/24 05:53:52;;;;;;;4.03;3.67;;;;;;;;;;5078217;28;20038;-60
2023/05/24 05:56:17;;;;;;;4.00;3.70;;;;;;;;;;5077931;28;20060;-62
2023/05/24 05:58:43;;;;;;;3.85;3.53;;;;;;;;;;5077833;28;20040;-61
2023/05/24 06:01:08;;;;;;;4.53;3.88;;;;;;;;;;5078973;28;20047;-60
2023/05/24 06:03:33;;;;;;;4.10;3.80;;;;;;;;;;5077973;28;20557;-61
2023/05/24 06:05:59;;;;;;;3.55;3.28;;;;;;;;;;5060396;28;20488;-61
2023/05/24 06:08:26;;;;;;;3.47;3.17;;;;;;;;;;5057310;28;20029;-60
2023/05/24 06:10:51;;;;;;;3.78;3.47;;;;;;;;;;5056716;28;20173;-61
2023/05/24 06:13:17;;;;;;;3.72;3.50;;;;;;;;;;5059083;28;20036;-60
2023/05/24 06:15:42;;;;;;;4.00;3.63;;;;;;;;;;5058823;28;20377;-62
2023/05/24 06:18:08;;;;;;;3.63;3.42;;;;;;;;;;5059048;28;20056;-61
2023/05/24 06:20:33;;;;;;;3.88;3.58;;;;;;;;;;5058794;28;20112;-61
2023/05/24 06:22:59;;;;;;;4.28;3.90;;;;;;;;;;5057636;28;20060;-61
2023/05/24 06:25:26;;;;;;;3.78;3.47;;;;;;;;;;5057962;28;20083;-60
2023/05/24 06:27:51;;;;;;;3.42;3.22;;;;;;;;;;5058046;28;20055;-61
2023/05/24 06:30:17;;;;;;;3.33;3.10;;;;;;;;;;5058058;28;20496;-60
2023/05/24 06:32:42;;;;;;;3.30;3.10;;;;;;;;;;5057627;28;20024;-61
2023/05/24 06:35:08;;;;;;;3.55;3.30;;;;;;;;;;5055306;28;20167;-61
2023/05/24 06:37:34;;;;;;;2.78;2.50;;;;;;;;;;5056911;28;20057;-62
2023/05/24 06:39:59;;;;;;;3.65;3.20;;;;;;;;;;5057666;28;20125;-61
2023/05/24 06:42:25;;;;;;;3.17;2.85;;;;;;;;;;5055909;28;20037;-61
2023/05/24 06:44:50;;;;;;;2.95;2.80;;;;;;;;;;5056141;28;20480;-60
2023/05/24 06:47:16;;;;;;;2.85;2.67;;;;;;;;;;5039477;28;20491;-61
2023/05/24 06:49:41;;;;;;;3.05;2.85;;;;;;;;;;5055969;28;20052;-60
2023/05/24 06:52:07;;;;;;;2.58;2.38;;;;;;;;;;5058063;28;20036;-60
2023/05/24 06:54:33;;;;;;;3.40;3.10;;;;;;;;;;5055545;28;20037;-60
2023/05/24 06:56:58;;;;;;;3.08;2.88;;;;;;;;;;5056777;28;20083;-61
2023/05/24 06:59:24;;;;;;;2.80;2.67;;;;;;;;;;5057196;28;20086;-61
2023/05/24 07:01:56;;;;;;;3.75;3.45;;;;;;;;;;5056263;28;20033;-61
2023/05/24 07:04:21;;;;;;;3.38;3.08;;;;;;;;;;5056839;28;20044;-61
2023/05/24 07:06:47;;;;;;;3.30;3.10;;;;;;;;;;5053324;28;20050;-61
2023/05/24 07:09:13;;;;;;;3.72;3.53;;;;;;;;;;5055614;28;20036;-61
2023/05/24 07:11:39;;;;;;;4.63;3.55;;;;;;;;;;5052372;28;20036;-63
2023/05/24 07:14:05;;;;;;;15.57;3.88;;;;;;;;;;5020700;28;20032;-60
2023/05/24 07:16:30;;;;;;;3.42;3.13;;;;;;;;;;5055864;28;20037;-61
2023/05/24 07:18:57;;;;;;;3.25;2.72;;;;;;;;;;5056488;28;20128;-61
2023/05/24 07:21:22;;;;;;;4.03;2.65;;;;;;;;;;5036350;28;20123;-62
2023/05/24 07:23:51;;;;;;;2.85;2.67;;;;;;;;;;5057431;28;20028;-61
2023/05/24 07:26:17;;;;;;;3.05;2.85;;;;;;;;;;5056278;28;20042;-61
2023/05/24 07:28:44;;;;;;;5.18;2.97;;;;;;;;;;5038941;28;20115;-62
2023/05/24 07:31:09;;;;;;;3.35;2.22;;;;;;;;;;5058014;28;20025;-62
2023/05/24 07:33:35;;;;;;;2.92;2.72;;;;;;;;;;5056389;28;20051;-60
2023/05/24 07:36:01;;;;;;;5.50;3.08;;;;;;;;;;5056515;28;20581;-61
2023/05/24 07:38:28;;;;;;;4.35;2.70;;;;;;;;;;5058120;28;20032;-62
2023/05/24 07:40:53;;;;;;;8.18;3.63;;;;;;;;;;5056168;28;20041;-61
2023/05/24 07:43:18;;;;;;;3.53;3.22;;;;;;;;;;5056293;28;20498;-61
2023/05/24 07:45:44;;;;;;;3.03;2.72;;;;;;;;;;5054277;28;20156;-61
2023/05/24 07:48:10;;;;;;;5.63;2.80;;;;;;;;;;5057129;28;20051;-61
2023/05/24 07:50:36;;;;;;;3.75;2.78;;;;;;;;;;5055697;28;20075;-61
2023/05/24 07:53:01;;;;;;;2.80;2.58;;;;;;;;;;5054519;28;20037;-61
2023/05/24 07:55:27;;;;;;;2.60;2.40;;;;;;;;;;5056403;28;20112;-61
2023/05/24 07:57:52;;;;;;;2.53;2.42;;;;;;;;;;5056747;28;20085;-61
2023/05/24 08:00:18;;;;;;;2.28;2.17;;;;;;;;;;5051327;28;20048;-61
2023/05/24 08:02:45;;;;;;;3.88;2.33;;;;;;;;;;5021577;28;20037;-61
2023/05/24 08:05:11;;;;;;;12.20;3.42;;;;;;;;;;5050909;28;20061;-61
2023/05/24 08:07:37;;;;;;;2.55;2.20;;;;;;;;;;5056904;28;20463;-61
2023/05/24 08:10:02;;;;;;;3.80;2.63;;;;;;;;;;5042717;28;20623;-61
2023/05/24 08:12:29;;;;;;;3.53;3.28;;;;;;;;;;5056425;28;20083;-62
2023/05/24 08:14:55;;;;;;;3.15;2.95;;;;;;;;;;5052786;28;20068;-61
2023/05/24 08:17:20;;;;;;;3.05;2.83;;;;;;;;;;5053454;28;20036;-61
2023/05/24 08:19:46;;;;;;;2.83;2.45;;;;;;;;;;5034565;28;20036;-60
2023/05/24 08:22:11;;;;;;;3.65;3.45;;;;;;;;;;5056521;28;20032;-62
2023/05/24 08:24:37;;;;;;;2.55;2.13;;;;;;;;;;5054946;28;20040;-61
2023/05/24 08:27:03;;;;;;;2.78;2.58;;;;;;;;;;5053456;28;20116;-61
2023/05/24 08:29:28;;;;;;;2.85;2.65;;;;;;;;;;5055210;28;20090;-60
2023/05/24 08:31:54;;;;;;;3.55;3.25;;;;;;;;;;5054600;28;20480;-61
2023/05/24 08:34:19;;;;;;;3.47;3.17;;;;;;;;;;5055389;28;20043;-61
2023/05/24 08:36:45;;;;;;;2.78;2.65;;;;;;;;;;5056321;28;20457;-61
2023/05/24 08:39:10;;;;;;;3.45;3.25;;;;;;;;;;5055752;28;20040;-61
2023/05/24 08:41:37;;;;;;;3.47;3.13;;;;;;;;;;5054173;28;20040;-61
2023/05/24 08:44:06;;;;;;;2.72;2.53;;;;;;;;;;5055809;28;20039;-61
2023/05/24 08:46:33;;;;;;;3.15;2.95;;;;;;;;;;5038320;28;20084;-61
2023/05/24 08:49:02;;;;;;;2.80;2.60;;;;;;;;;;5056674;28;20464;-62
2023/05/24 08:51:28;;;;;;;2.95;2.75;;;;;;;;;;5053303;28;20547;-61
2023/05/24 08:53:54;;;;;;;2.97;2.78;;;;;;;;;;5056010;28;20039;-61
2023/05/24 08:56:20;;;;;;;20.25;12.68;;;;;;;;;;5035575;28;20542;-61
2023/05/24 08:58:46;;;;;;;4.38;3.83;;;;;;;;;;5037329;28;20103;-63
2023/05/24 09:01:12;;;;;;;3.65;3.03;;;;;;;;;;5053954;28;20031;-61
2023/05/24 09:03:39;;;;;;;4.35;3.20;;;;;;;;;;5055953;28;20041;-62
2023/05/24 09:06:06;;;;;;;3.30;3.05;;;;;;;;;;5052944;28;20135;-61
2023/05/24 09:08:33;;;;;;;4.45;3.05;;;;;;;;;;5040001;28;20040;-61
2023/05/24 09:11:00;;;;;;;2.75;2.55;;;;;;;;;;5055693;28;20032;-60
2023/05/24 09:13:25;;;;;;;3.30;3.10;;;;;;;;;;5054530;28;20484;-61
2023/05/24 09:15:51;;;;;;;3.88;3.58;;;;;;;;;;5053598;28;20295;-61
2023/05/24 09:18:17;;;;;;;3.13;2.92;;;;;;;;;;5055267;28;20144;-61
2023/05/24 09:20:42;;;;;;;2.60;2.40;;;;;;;;;;5054952;28;20044;-62
2023/05/24 09:23:08;;;;;;;3.42;2.47;;;;;;;;;;5058641;28;20041;-60
2023/05/24 09:25:33;;;;;;;2.80;2.60;;;;;;;;;;5058925;28;20040;-61
2023/05/24 09:28:04;;;;;;;2.72;2.53;;;;;;;;;;5057560;28;20110;-60
2023/05/24 09:30:29;;;;;;;2.72;2.60;;;;;;;;;;5058715;28;20076;-63
2023/05/24 09:32:56;;;;;;;2.78;2.67;;;;;;;;;;5058177;28;20513;-61
2023/05/24 09:35:22;;;;;;;2.80;2.70;;;;;;;;;;5057718;28;20041;-60
2023/05/24 09:37:47;;;;;;;4.15;2.80;;;;;;;;;;5059503;28;20036;-62
2023/05/24 09:40:18;;;;;;;3.05;2.75;;;;;;;;;;5060891;28;20409;-60
2023/05/24 09:42:45;;;;;;;3.35;3.05;;;;;;;;;;5041073;28;20086;-61
2023/05/24 09:45:11;;;;;;;3.38;2.88;;;;;;;;;;5058713;28;20068;-63
2023/05/24 09:47:37;;;;;;;6.45;3.22;;;;;;;;;;5058944;28;20043;-62
2023/05/24 09:50:03;;;;;;;3.35;3.15;;;;;;;;;;5058795;28;20485;-63
2023/05/24 09:52:29;;;;;;;5.95;2.88;;;;;;;;;;5059102;28;20522;-62
2023/05/24 09:54:55;;;;;;;3.30;2.72;;;;;;;;;;5058070;28;20127;-61
2023/05/24 09:57:24;;;;;;;3.58;2.90;;;;;;;;;;5057191;28;20074;-62
2023/05/24 09:59:51;;;;;;;3.28;3.00;;;;;;;;;;5059536;28;20052;-63
2023/05/24 10:02:20;;;;;;;2.92;2.72;;;;;;;;;;5054980;28;20059;-61
2023/05/24 10:04:46;;;;;;;2.78;2.58;;;;;;;;;;5040552;28;20049;-63
2023/05/24 10:07:11;;;;;;;3.20;3.00;;;;;;;;;;5049518;28;20047;-62
2023/05/24 10:09:37;;;;;;;2.83;2.63;;;;;;;;;;5057586;28;20527;-62
2023/05/24 10:12:03;;;;;;;2.90;2.70;;;;;;;;;;5056988;28;20047;-61
2023/05/24 10:14:34;;;;;;;2.92;2.72;;;;;;;;;;5058349;28;20465;-64
2023/05/24 10:17:02;;;;;;;2.75;2.58;;;;;;;;;;5057364;28;20060;-60
2023/05/24 10:19:28;;;;;;;3.22;2.92;;;;;;;;;;5056834;28;20064;-61
2023/05/24 10:21:55;;;;;;;3.00;2.58;;;;;;;;;;5056407;28;20507;-61
2023/05/24 10:24:22;;;;;;;3.03;2.55;;;;;;;;;;5057581;28;20506;-62
2023/05/24 10:26:48;;;;;;;2.97;2.78;;;;;;;;;;5058679;28;20044;-62
2023/05/24 10:29:21;;;;;;;3.63;3.25;;;;;;;;;;5057233;28;20040;-60
2023/05/24 10:31:47;;;;;;;4.60;4.20;;;;;;;;;;5057858;28;20033;-60
2023/05/24 10:34:12;;;;;;;4.78;4.28;;;;;;;;;;5058136;28;20465;-62
2023/05/24 10:36:39;;;;;;;12.50;8.25;;;;;;;;;;5056266;28;20645;-61
2023/05/24 10:39:06;;;;;;;9.13;6.78;;;;;;;;;;5056699;28;20041;-61
2023/05/24 10:41:41;;;;;;;5.63;5.05;;;;;;;;;;5055376;28;20236;-61
2023/05/24 10:44:17;;;;;;;5.78;5.18;;;;;;;;;;5057201;28;20086;-61
2023/05/24 10:47:02;;;;;;;3.30;3.10;;;;;;;;;;5058580;28;20048;-61
2023/05/24 10:49:28;;;;;;;;;;;;;;;;;;5060411;28;20087;-61
2023/05/24 10:52:00;;;;;;;2.60;2.50;;;;;;;;;;5059629;28;19977;-61
2023/05/24 10:54:28;;;;;;;3.20;2.83;;;;;;;;;;5066330;28;20154;-62
2023/05/24 10:56:55;;;;;;;2.40;2.20;;;;;;;;;;5062648;28;20471;-61
2023/05/24 10:59:22;;;;;;;3.03;2.80;;;;;;;;;;5061324;28;20333;-62
2023/05/24 11:01:53;;;;;;;2.78;2.67;;;;;;;;;;5042662;28;20032;-61
2023/05/24 11:04:19;;;;;;;2.15;2.05;;;;;;;;;;5058218;28;20040;-60
2023/05/24 11:06:48;;;;;;;3.28;3.00;;;;;;;;;;5055738;28;20043;-61
2023/05/24 11:09:14;;;;;;;2.90;2.70;;;;;;;;;;5056393;28;20065;-61
2023/05/24 11:11:43;;;;;;;3.10;2.90;;;;;;;;;;5057258;28;20028;-61
2023/05/24 11:14:09;;;;;;;3.10;2.90;;;;;;;;;;5056299;28;20051;-61
2023/05/24 11:16:38;;;;;;;3.05;2.85;;;;;;;;;;5029648;28;20028;-61
2023/05/24 11:19:22;;;;;;;2.80;2.60;;;;;;;;;;5056359;28;20481;-61
2023/05/24 11:21:52;;;;;;;3.00;2.75;;;;;;;;;;5057591;28;20040;-62
2023/05/24 11:24:18;;;;;;;3.20;3.00;;;;;;;;;;5056803;28;20115;-62
2023/05/24 11:26:44;;;;;;;3.70;3.50;;;;;;;;;;5055279;28;20036;-62
2023/05/24 11:29:12;;;;;;;3.17;2.97;;;;;;;;;;5028189;28;20037;-61
2023/05/24 11:31:38;;;;;;;2.53;2.33;;;;;;;;;;5056361;28;20098;-61
2023/05/24 11:34:09;;;;;;;2.92;2.72;;;;;;;;;;5055311;28;20078;-64
2023/05/24 11:36:35;;;;;;;2.63;2.53;;;;;;;;;;5055510;28;20052;-59
2023/05/24 11:39:00;;;;;;;2.85;2.65;;;;;;;;;;5056873;28;20044;-61
2023/05/24 11:41:27;;;;;;;3.00;2.80;;;;;;;;;;5036086;28;20047;-60
2023/05/24 11:43:52;;;;;;;2.90;2.70;;;;;;;;;;5056022;28;20036;-60
2023/05/24 11:46:19;;;;;;;3.03;2.80;;;;;;;;;;5056376;28;20439;-62
2023/05/24 11:48:53;;;;;;;2.47;2.38;;;;;;;;;;5040798;28;20071;-61
2023/05/24 11:51:24;;;;;;;3.28;2.97;;;;;;;;;;5053373;28;20036;-60
2023/05/24 11:53:50;;;;;;;3.10;2.90;;;;;;;;;;5052133;28;20193;-61
2023/05/24 11:56:15;;;;;;;4.75;4.30;;;;;;;;;;5054476;28;20260;-61
2023/05/24 11:58:44;;;;;;;3.22;3.03;;;;;;;;;;5056823;28;20102;-61
2023/05/24 12:01:23;;;;;;;2.45;2.28;;;;;;;;;;5054853;28;20071;-61
2023/05/24 12:03:49;;;;;;;3.58;3.28;;;;;;;;;;5035403;28;20101;-60
2023/05/24 12:06:15;;;;;;;3.28;2.55;;;;;;;;;;5075480;28;20054;-61
2023/05/24 12:08:40;;;;;;;2.80;2.42;;;;;;;;;;5076656;28;20039;-61
2023/05/24 12:11:06;;;;;;;3.33;2.92;;;;;;;;;;5075995;28;20369;-61
2023/05/24 12:13:31;;;;;;;2.83;2.63;;;;;;;;;;5074799;28;20047;-60
2023/05/24 12:15:57;;;;;;;2.80;2.60;;;;;;;;;;5076537;28;20482;-60
2023/05/24 12:18:24;;;;;;;2.65;2.45;;;;;;;;;;5073215;28;20368;-60
2023/05/24 12:20:50;;;;;;;3.95;2.58;;;;;;;;;;5075784;28;20097;-62
2023/05/24 12:23:22;;;;;;;4.18;3.78;;;;;;;;;;5074042;28;20040;-60
2023/05/24 12:25:48;;;;;;;2.85;2.65;;;;;;;;;;5075272;28;20054;-61
2023/05/24 12:28:14;;;;;;;3.75;3.30;;;;;;;;;;5075114;28;20071;-62
2023/05/24 12:30:43;;;;;;;3.25;2.70;;;;;;;;;;5076890;28;20077;-61
2023/05/24 12:33:09;;;;;;;3.08;2.88;;;;;;;;;;5075204;28;20047;-60
2023/05/24 12:35:36;;;;;;;3.15;2.63;;;;;;;;;;5076217;28;20035;-61
2023/05/24 12:38:01;;;;;;;3.28;2.97;;;;;;;;;;5074513;28;20044;-60
2023/05/24 12:40:32;;;;;;;2.80;2.60;;;;;;;;;;5075015;28;20792;-60
2023/05/24 12:42:58;;;;;;;4.43;2.70;;;;;;;;;;5066564;28;20519;-63
2023/05/24 12:45:24;;;;;;;3.47;3.10;;;;;;;;;;5061290;28;20044;-62
2023/05/24 12:47:50;;;;;;;3.38;2.80;;;;;;;;;;5091230;28;20474;-61
2023/05/24 12:50:16;;;;;;;5.32;3.35;;;;;;;;;;5076818;28;20040;-62
2023/05/24 12:52:43;;;;;;;3.00;2.80;;;;;;;;;;5076520;28;20024;-62
2023/05/24 12:55:08;;;;;;;2.97;2.78;;;;;;;;;;5075984;28;20387;-62
2023/05/24 12:57:34;;;;;;;3.63;2.78;;;;;;;;;;5074652;28;20046;-62
2023/05/24 12:59:59;;;;;;;3.08;2.70;;;;;;;;;;5075839;28;20024;-61
2023/05/24 13:02:24;;;;;;;3.00;2.80;;;;;;;;;;5073261;28;20938;-61
2023/05/24 13:04:50;;;;;;;3.40;3.10;;;;;;;;;;5064265;28;20126;-64
2023/05/24 13:07:16;;;;;;;2.90;2.70;;;;;;;;;;5055211;28;20188;-61
2023/05/24 13:09:42;;;;;;;4.00;2.67;;;;;;;;;;5054761;28;20112;-61
2023/05/24 13:12:07;;;;;;;3.30;3.00;;;;;;;;;;5055753;28;20151;-62
2023/05/24 13:14:33;;;;;;;3.10;2.70;;;;;;;;;;5054679;28;20033;-61
2023/05/24 13:16:58;;;;;;;3.10;2.90;;;;;;;;;;5054591;28;20036;-61
2023/05/24 13:19:24;;;;;;;2.75;2.55;;;;;;;;;;5055098;28;20032;-62
2023/05/24 13:21:49;;;;;;;2.80;2.20;;;;;;;;;;5055650;28;20043;-62
2023/05/24 13:24:15;;;;;;;3.15;2.95;;;;;;;;;;5024108;28;20636;-61
2023/05/24 13:26:40;;;;;;;2.83;2.63;;;;;;;;;;5054261;28;20044;-61
2023/05/24 13:29:06;;;;;;;3.35;3.05;;;;;;;;;;5054790;28;20087;-62
2023/05/24 13:31:31;;;;;;;4.68;4.22;;;;;;;;;;5055547;28;20059;-62
2023/05/24 13:33:57;;;;;;;3.08;2.50;;;;;;;;;;5053630;28;20033;-62
2023/05/24 13:36:22;;;;;;;3.00;2.80;;;;;;;;;;5054096;28;20568;-63
2023/05/24 13:38:48;;;;;;;2.75;2.55;;;;;;;;;;5056435;28;20794;-64
2023/05/24 13:41:13;;;;;;;2.80;2.60;;;;;;;;;;5054494;28;20062;-61
2023/05/24 13:43:39;;;;;;;2.70;2.50;;;;;;;;;;5050864;28;20028;-63
2023/05/24 13:46:04;;;;;;;3.78;2.85;;;;;;;;;;5040389;28;20097;-62
2023/05/24 13:48:30;;;;;;;2.50;2.30;;;;;;;;;;5050955;28;20475;-62
2023/05/24 13:50:55;;;;;;;2.75;2.55;;;;;;;;;;5052733;28;20278;-64
2023/05/24 13:53:21;;;;;;;4.40;2.60;;;;;;;;;;5051862;28;20024;-62
2023/05/24 13:55:47;;;;;;;4.05;3.00;;;;;;;;;;5054138;28;20147;-62
2023/05/24 13:58:12;;;;;;;3.85;2.72;;;;;;;;;;5053354;28;20087;-61
2023/05/24 14:00:38;;;;;;;5.47;3.40;;;;;;;;;;5054241;28;20551;-63
2023/05/24 14:03:04;;;;;;;2.92;2.72;;;;;;;;;;5036839;28;20287;-62
2023/05/24 14:05:30;;;;;;;4.07;3.50;;;;;;;;;;5045545;28;20101;-61
2023/05/24 14:07:56;;;;;;;3.42;3.13;;;;;;;;;;5051684;28;20036;-62
2023/05/24 14:10:22;;;;;;;2.92;2.72;;;;;;;;;;5056983;28;20127;-63
2023/05/24 14:12:48;;;;;;;3.17;2.97;;;;;;;;;;5058325;28;20055;-65
2023/05/24 14:15:13;;;;;;;4.68;3.70;;;;;;;;;;5057219;28;20495;-65
2023/05/24 14:17:39;;;;;;;3.45;3.13;;;;;;;;;;5058646;28;20049;-64
2023/05/24 14:20:06;;;;;;;3.08;2.78;;;;;;;;;;5059132;28;20436;-63
2023/05/24 14:22:31;;;;;;;3.85;2.92;;;;;;;;;;5056398;28;20484;-63
2023/05/24 14:24:56;;;;;;;4.50;3.13;;;;;;;;;;5058942;28;20037;-63
2023/05/24 14:27:22;;;;;;;6.38;3.42;;;;;;;;;;5058277;28;20586;-64
2023/05/24 14:29:47;;;;;;;4.72;2.80;;;;;;;;;;5057626;28;20041;-63
2023/05/24 14:32:15;;;;;;;3.83;2.97;;;;;;;;;;5057972;28;20329;-64
2023/05/24 14:34:40;;;;;;;4.75;2.72;;;;;;;;;;5059751;28;20025;-66
2023/05/24 14:37:06;;;;;;;3.25;2.95;;;;;;;;;;5057800;28;20711;-64
2023/05/24 14:39:31;;;;;;;3.33;2.83;;;;;;;;;;5055878;28;20033;-64